sensor_id;sensor_type;location;lat;lon;timestamp;P1;durP1;ratioP1;P2;durP2;ratioP2
2019;SDS011;1014;51.960;8.542;2022-08-01T00:01:37;48.47;;;44.93;;
2019;SDS011;1014;51.960;8.542;2022-08-01T00:04:04;45.77;;;42.67;;
2019;SDS011;1014;51.960;8.542;2022-08-01T00:06:31;45.57;;;42.13;;
2019;SDS011;1014;51.960;8.542;2022-08-01T00:08:59;45.33;;;42.03;;
2019;SDS011;1014;51.960;8.542;2022-08-01T00:11:28;44.67;;;41.47;;
2019;SDS011;1014;51.960;8.542;2022-08-01T00:13:55;43.43;;;39.73;;
2019;SDS011;1014;51.960;8.542;2022-08-01T00:16:23;45.33;;;41.37;;
2019;SDS011;1014;51.960;8.542;2022-08-01T00:18:50;45.47;;;42.07;;
2019;SDS011;1014;51.960;8.542;2022-08-01T00:21:18;42.07;;;38.97;;
2019;SDS011;1014;51.960;8.542;2022-08-01T00:23:45;41.53;;;38.73;;
2019;SDS011;1014;51.960;8.542;2022-08-01T00:26:12;43.30;;;40.17;;
2019;SDS011;1014;51.960;8.542;2022-08-01T00:28:41;43.20;;;40.10;;
2019;SDS011;1014;51.960;8.542;2022-08-01T00:31:09;44.03;;;40.90;;
2019;SDS011;1014;51.960;8.542;2022-08-01T00:33:36;45.17;;;41.97;;
2019;SDS011;1014;51.960;8.542;2022-08-01T00:36:03;45.53;;;42.23;;
2019;SDS011;1014;51.960;8.542;2022-08-01T00:38:31;47.67;;;44.03;;
2019;SDS011;1014;51.960;8.542;2022-08-01T00:40:58;49.47;;;45.43;;
2019;SDS011;1014;51.960;8.542;2022-08-01T00:43:25;46.73;;;43.33;;
2019;SDS011;1014;51.960;8.542;2022-08-01T00:45:54;45.63;;;42.07;;
2019;SDS011;1014;51.960;8.542;2022-08-01T00:48:22;45.60;;;41.90;;
2019;SDS011;1014;51.960;8.542;2022-08-01T00:50:49;48.33;;;44.30;;
2019;SDS011;1014;51.960;8.542;2022-08-01T00:53:16;50.50;;;46.60;;
2019;SDS011;1014;51.960;8.542;2022-08-01T00:55:44;47.43;;;42.90;;
2019;SDS011;1014;51.960;8.542;2022-08-01T00:58:11;46.53;;;43.00;;
2019;SDS011;1014;51.960;8.542;2022-08-01T01:00:38;50.13;;;46.03;;
2019;SDS011;1014;51.960;8.542;2022-08-01T01:03:07;50.83;;;46.93;;
2019;SDS011;1014;51.960;8.542;2022-08-01T01:05:36;46.37;;;42.53;;
2019;SDS011;1014;51.960;8.542;2022-08-01T01:08:07;45.87;;;41.87;;
2019;SDS011;1014;51.960;8.542;2022-08-01T01:10:36;48.60;;;44.70;;
2019;SDS011;1014;51.960;8.542;2022-08-01T01:13:05;46.07;;;42.37;;
2019;SDS011;1014;51.960;8.542;2022-08-01T01:15:34;45.97;;;42.30;;
2019;SDS011;1014;51.960;8.542;2022-08-01T01:18:07;47.70;;;44.03;;
2019;SDS011;1014;51.960;8.542;2022-08-01T01:20:38;48.87;;;44.60;;
2019;SDS011;1014;51.960;8.542;2022-08-01T01:23:19;48.93;;;44.20;;
2019;SDS011;1014;51.960;8.542;2022-08-01T01:25:54;49.30;;;45.40;;
2019;SDS011;1014;51.960;8.542;2022-08-01T01:28:27;48.33;;;44.63;;
2019;SDS011;1014;51.960;8.542;2022-08-01T01:30:58;49.60;;;45.80;;
2019;SDS011;1014;51.960;8.542;2022-08-01T01:33:27;49.47;;;45.70;;
2019;SDS011;1014;51.960;8.542;2022-08-01T01:35:57;53.80;;;49.47;;
2019;SDS011;1014;51.960;8.542;2022-08-01T01:38:28;47.30;;;43.70;;
2019;SDS011;1014;51.960;8.542;2022-08-01T01:40:56;50.80;;;46.43;;
2019;SDS011;1014;51.960;8.542;2022-08-01T01:43:24;50.67;;;46.77;;
2019;SDS011;1014;51.960;8.542;2022-08-01T01:45:51;54.40;;;49.93;;
2019;SDS011;1014;51.960;8.542;2022-08-01T01:48:21;49.37;;;45.10;;
2019;SDS011;1014;51.960;8.542;2022-08-01T01:50:51;51.67;;;47.67;;
2019;SDS011;1014;51.960;8.542;2022-08-01T01:53:20;50.13;;;46.10;;
2019;SDS011;1014;51.960;8.542;2022-08-01T01:55:48;48.97;;;44.77;;
2019;SDS011;1014;51.960;8.542;2022-08-01T01:58:17;47.60;;;43.90;;
2019;SDS011;1014;51.960;8.542;2022-08-01T02:00:45;46.97;;;42.97;;
2019;SDS011;1014;51.960;8.542;2022-08-01T02:03:14;45.40;;;41.70;;
2019;SDS011;1014;51.960;8.542;2022-08-01T02:05:43;48.63;;;44.93;;
2019;SDS011;1014;51.960;8.542;2022-08-01T02:08:11;43.53;;;40.07;;
2019;SDS011;1014;51.960;8.542;2022-08-01T02:10:41;49.63;;;45.40;;
2019;SDS011;1014;51.960;8.542;2022-08-01T02:13:30;46.00;;;42.70;;
2019;SDS011;1014;51.960;8.542;2022-08-01T02:15:58;48.87;;;44.90;;
2019;SDS011;1014;51.960;8.542;2022-08-01T02:18:26;46.50;;;42.90;;
2019;SDS011;1014;51.960;8.542;2022-08-01T02:20:55;48.37;;;44.80;;
2019;SDS011;1014;51.960;8.542;2022-08-01T02:23:25;50.67;;;46.80;;
2019;SDS011;1014;51.960;8.542;2022-08-01T02:25:55;50.73;;;46.10;;
2019;SDS011;1014;51.960;8.542;2022-08-01T02:28:25;50.23;;;46.47;;
2019;SDS011;1014;51.960;8.542;2022-08-01T02:30:56;50.40;;;46.80;;
2019;SDS011;1014;51.960;8.542;2022-08-01T02:33:27;48.83;;;45.23;;
2019;SDS011;1014;51.960;8.542;2022-08-01T02:35:58;48.13;;;44.60;;
2019;SDS011;1014;51.960;8.542;2022-08-01T02:38:27;49.93;;;46.60;;
2019;SDS011;1014;51.960;8.542;2022-08-01T02:40:55;50.90;;;47.40;;
2019;SDS011;1014;51.960;8.542;2022-08-01T02:43:24;49.10;;;45.60;;
2019;SDS011;1014;51.960;8.542;2022-08-01T02:45:54;51.20;;;47.40;;
2019;SDS011;1014;51.960;8.542;2022-08-01T02:48:23;48.60;;;45.30;;
2019;SDS011;1014;51.960;8.542;2022-08-01T02:50:52;48.87;;;45.47;;
2019;SDS011;1014;51.960;8.542;2022-08-01T02:53:22;49.87;;;46.17;;
2019;SDS011;1014;51.960;8.542;2022-08-01T02:55:50;48.63;;;44.80;;
2019;SDS011;1014;51.960;8.542;2022-08-01T02:58:18;48.80;;;45.40;;
2019;SDS011;1014;51.960;8.542;2022-08-01T03:00:49;48.13;;;44.90;;
2019;SDS011;1014;51.960;8.542;2022-08-01T03:03:16;46.73;;;43.37;;
2019;SDS011;1014;51.960;8.542;2022-08-01T03:05:44;48.20;;;45.20;;
2019;SDS011;1014;51.960;8.542;2022-08-01T03:08:13;48.97;;;45.47;;
2019;SDS011;1014;51.960;8.542;2022-08-01T03:10:44;45.67;;;42.17;;
2019;SDS011;1014;51.960;8.542;2022-08-01T03:13:11;47.20;;;43.70;;
2019;SDS011;1014;51.960;8.542;2022-08-01T03:15:40;46.77;;;43.43;;
2019;SDS011;1014;51.960;8.542;2022-08-01T03:18:08;47.70;;;44.50;;
2019;SDS011;1014;51.960;8.542;2022-08-01T03:20:36;48.23;;;44.70;;
2019;SDS011;1014;51.960;8.542;2022-08-01T03:23:05;47.43;;;43.83;;
2019;SDS011;1014;51.960;8.542;2022-08-01T03:25:34;46.90;;;43.40;;
2019;SDS011;1014;51.960;8.542;2022-08-01T03:28:04;47.40;;;44.00;;
2019;SDS011;1014;51.960;8.542;2022-08-01T03:30:33;50.70;;;47.30;;
2019;SDS011;1014;51.960;8.542;2022-08-01T03:33:01;55.90;;;52.03;;
2019;SDS011;1014;51.960;8.542;2022-08-01T03:35:29;52.20;;;48.40;;
2019;SDS011;1014;51.960;8.542;2022-08-01T03:37:57;40.23;;;37.17;;
2019;SDS011;1014;51.960;8.542;2022-08-01T03:40:28;45.00;;;41.83;;
2019;SDS011;1014;51.960;8.542;2022-08-01T03:42:59;43.13;;;40.07;;
2019;SDS011;1014;51.960;8.542;2022-08-01T03:45:30;44.53;;;41.30;;
2019;SDS011;1014;51.960;8.542;2022-08-01T03:47:59;43.03;;;40.13;;
2019;SDS011;1014;51.960;8.542;2022-08-01T03:50:27;40.93;;;38.03;;
2019;SDS011;1014;51.960;8.542;2022-08-01T03:52:57;44.97;;;41.40;;
2019;SDS011;1014;51.960;8.542;2022-08-01T03:55:26;42.80;;;40.00;;
2019;SDS011;1014;51.960;8.542;2022-08-01T03:57:53;45.97;;;42.67;;
2019;SDS011;1014;51.960;8.542;2022-08-01T04:00:21;43.43;;;40.63;;
2019;SDS011;1014;51.960;8.542;2022-08-01T04:02:52;43.83;;;40.73;;
2019;SDS011;1014;51.960;8.542;2022-08-01T04:05:19;44.23;;;41.30;;
2019;SDS011;1014;51.960;8.542;2022-08-01T04:07:47;43.40;;;40.57;;
2019;SDS011;1014;51.960;8.542;2022-08-01T04:10:20;41.47;;;38.67;;
2019;SDS011;1014;51.960;8.542;2022-08-01T04:12:48;41.67;;;38.73;;
2019;SDS011;1014;51.960;8.542;2022-08-01T04:15:15;42.80;;;39.33;;
2019;SDS011;1014;51.960;8.542;2022-08-01T04:17:43;41.30;;;38.50;;
2019;SDS011;1014;51.960;8.542;2022-08-01T04:20:12;41.40;;;38.53;;
2019;SDS011;1014;51.960;8.542;2022-08-01T04:22:40;42.03;;;39.10;;
2019;SDS011;1014;51.960;8.542;2022-08-01T04:25:11;44.83;;;41.73;;
2019;SDS011;1014;51.960;8.542;2022-08-01T04:27:40;40.57;;;37.80;;
2019;SDS011;1014;51.960;8.542;2022-08-01T04:30:09;43.20;;;40.20;;
2019;SDS011;1014;51.960;8.542;2022-08-01T04:32:38;41.70;;;38.80;;
2019;SDS011;1014;51.960;8.542;2022-08-01T04:35:06;42.63;;;39.80;;
2019;SDS011;1014;51.960;8.542;2022-08-01T04:37:36;43.43;;;40.43;;
2019;SDS011;1014;51.960;8.542;2022-08-01T04:40:05;43.50;;;40.40;;
2019;SDS011;1014;51.960;8.542;2022-08-01T04:42:33;43.87;;;40.67;;
2019;SDS011;1014;51.960;8.542;2022-08-01T04:45:00;43.50;;;40.23;;
2019;SDS011;1014;51.960;8.542;2022-08-01T04:47:28;42.90;;;39.70;;
2019;SDS011;1014;51.960;8.542;2022-08-01T04:49:56;41.23;;;38.53;;
2019;SDS011;1014;51.960;8.542;2022-08-01T04:52:31;43.30;;;40.30;;
2019;SDS011;1014;51.960;8.542;2022-08-01T04:55:00;41.43;;;38.67;;
2019;SDS011;1014;51.960;8.542;2022-08-01T04:57:28;41.47;;;38.53;;
2019;SDS011;1014;51.960;8.542;2022-08-01T04:59:55;41.87;;;38.70;;
2019;SDS011;1014;51.960;8.542;2022-08-01T05:02:23;40.83;;;37.90;;
2019;SDS011;1014;51.960;8.542;2022-08-01T05:04:53;40.83;;;37.83;;
2019;SDS011;1014;51.960;8.542;2022-08-01T05:07:21;40.03;;;37.43;;
2019;SDS011;1014;51.960;8.542;2022-08-01T05:09:48;38.83;;;36.07;;
2019;SDS011;1014;51.960;8.542;2022-08-01T05:12:17;40.60;;;38.07;;
2019;SDS011;1014;51.960;8.542;2022-08-01T05:14:45;39.80;;;37.40;;
2019;SDS011;1014;51.960;8.542;2022-08-01T05:17:13;41.23;;;38.30;;
2019;SDS011;1014;51.960;8.542;2022-08-01T05:19:41;41.63;;;38.93;;
2019;SDS011;1014;51.960;8.542;2022-08-01T05:22:09;43.20;;;40.40;;
2019;SDS011;1014;51.960;8.542;2022-08-01T05:24:38;43.50;;;40.50;;
2019;SDS011;1014;51.960;8.542;2022-08-01T05:27:06;43.40;;;40.80;;
2019;SDS011;1014;51.960;8.542;2022-08-01T05:29:35;42.10;;;39.50;;
2019;SDS011;1014;51.960;8.542;2022-08-01T05:32:05;39.60;;;37.20;;
2019;SDS011;1014;51.960;8.542;2022-08-01T05:34:33;41.90;;;39.40;;
2019;SDS011;1014;51.960;8.542;2022-08-01T05:37:00;41.97;;;39.37;;
2019;SDS011;1014;51.960;8.542;2022-08-01T05:39:28;42.57;;;39.97;;
2019;SDS011;1014;51.960;8.542;2022-08-01T05:41:55;40.23;;;37.77;;
2019;SDS011;1014;51.960;8.542;2022-08-01T05:44:23;39.60;;;36.77;;
2019;SDS011;1014;51.960;8.542;2022-08-01T05:46:52;38.87;;;36.33;;
2019;SDS011;1014;51.960;8.542;2022-08-01T05:49:19;40.37;;;37.90;;
2019;SDS011;1014;51.960;8.542;2022-08-01T05:51:47;40.20;;;37.60;;
2019;SDS011;1014;51.960;8.542;2022-08-01T05:54:14;40.30;;;37.77;;
2019;SDS011;1014;51.960;8.542;2022-08-01T05:56:42;38.20;;;35.90;;
2019;SDS011;1014;51.960;8.542;2022-08-01T05:59:09;38.17;;;35.83;;
2019;SDS011;1014;51.960;8.542;2022-08-01T06:01:36;38.07;;;35.47;;
2019;SDS011;1014;51.960;8.542;2022-08-01T06:04:05;36.67;;;34.20;;
2019;SDS011;1014;51.960;8.542;2022-08-01T06:06:32;37.03;;;34.70;;
2019;SDS011;1014;51.960;8.542;2022-08-01T06:09:00;36.57;;;34.30;;
2019;SDS011;1014;51.960;8.542;2022-08-01T06:11:27;37.70;;;35.40;;
2019;SDS011;1014;51.960;8.542;2022-08-01T06:13:54;36.20;;;33.80;;
2019;SDS011;1014;51.960;8.542;2022-08-01T06:16:22;36.53;;;34.10;;
2019;SDS011;1014;51.960;8.542;2022-08-01T06:18:49;35.80;;;33.37;;
2019;SDS011;1014;51.960;8.542;2022-08-01T06:21:18;34.97;;;32.50;;
2019;SDS011;1014;51.960;8.542;2022-08-01T06:23:46;35.77;;;33.73;;
2019;SDS011;1014;51.960;8.542;2022-08-01T06:26:13;35.27;;;33.10;;
2019;SDS011;1014;51.960;8.542;2022-08-01T06:28:40;34.40;;;32.37;;
2019;SDS011;1014;51.960;8.542;2022-08-01T06:31:08;33.73;;;31.73;;
2019;SDS011;1014;51.960;8.542;2022-08-01T06:33:37;36.00;;;33.80;;
2019;SDS011;1014;51.960;8.542;2022-08-01T06:36:05;34.27;;;32.30;;
2019;SDS011;1014;51.960;8.542;2022-08-01T06:38:33;32.90;;;30.90;;
2019;SDS011;1014;51.960;8.542;2022-08-01T06:41:01;35.03;;;33.03;;
2019;SDS011;1014;51.960;8.542;2022-08-01T06:43:29;34.87;;;33.00;;
2019;SDS011;1014;51.960;8.542;2022-08-01T06:45:56;37.70;;;35.30;;
2019;SDS011;1014;51.960;8.542;2022-08-01T06:48:24;35.10;;;32.73;;
2019;SDS011;1014;51.960;8.542;2022-08-01T06:50:51;33.60;;;31.67;;
2019;SDS011;1014;51.960;8.542;2022-08-01T06:53:34;32.77;;;30.63;;
2019;SDS011;1014;51.960;8.542;2022-08-01T06:56:01;34.23;;;32.43;;
2019;SDS011;1014;51.960;8.542;2022-08-01T06:58:29;35.50;;;33.50;;
2019;SDS011;1014;51.960;8.542;2022-08-01T07:00:56;34.97;;;32.83;;
2019;SDS011;1014;51.960;8.542;2022-08-01T07:03:23;35.30;;;33.20;;
2019;SDS011;1014;51.960;8.542;2022-08-01T07:05:51;34.77;;;32.77;;
2019;SDS011;1014;51.960;8.542;2022-08-01T07:08:18;34.10;;;32.00;;
2019;SDS011;1014;51.960;8.542;2022-08-01T07:10:47;32.57;;;30.67;;
2019;SDS011;1014;51.960;8.542;2022-08-01T07:13:14;33.23;;;31.23;;
2019;SDS011;1014;51.960;8.542;2022-08-01T07:15:46;32.43;;;30.63;;
2019;SDS011;1014;51.960;8.542;2022-08-01T07:18:13;31.13;;;29.37;;
2019;SDS011;1014;51.960;8.542;2022-08-01T07:20:41;31.87;;;29.93;;
2019;SDS011;1014;51.960;8.542;2022-08-01T07:23:11;31.10;;;29.30;;
2019;SDS011;1014;51.960;8.542;2022-08-01T07:25:38;31.67;;;29.87;;
2019;SDS011;1014;51.960;8.542;2022-08-01T07:28:07;32.97;;;31.10;;
2019;SDS011;1014;51.960;8.542;2022-08-01T07:30:34;32.83;;;30.43;;
2019;SDS011;1014;51.960;8.542;2022-08-01T07:33:02;32.97;;;31.07;;
2019;SDS011;1014;51.960;8.542;2022-08-01T07:35:29;32.07;;;30.03;;
2019;SDS011;1014;51.960;8.542;2022-08-01T07:37:56;32.87;;;30.83;;
2019;SDS011;1014;51.960;8.542;2022-08-01T07:40:24;33.03;;;31.13;;
2019;SDS011;1014;51.960;8.542;2022-08-01T07:42:51;29.97;;;28.27;;
2019;SDS011;1014;51.960;8.542;2022-08-01T07:45:20;27.17;;;25.80;;
2019;SDS011;1014;51.960;8.542;2022-08-01T07:47:48;27.07;;;25.73;;
2019;SDS011;1014;51.960;8.542;2022-08-01T07:50:15;26.90;;;25.60;;
2019;SDS011;1014;51.960;8.542;2022-08-01T07:52:43;26.13;;;24.93;;
2019;SDS011;1014;51.960;8.542;2022-08-01T07:55:11;27.13;;;25.93;;
2019;SDS011;1014;51.960;8.542;2022-08-01T07:57:38;26.90;;;25.60;;
2019;SDS011;1014;51.960;8.542;2022-08-01T08:00:07;24.67;;;23.60;;
2019;SDS011;1014;51.960;8.542;2022-08-01T08:02:36;26.27;;;25.07;;
2019;SDS011;1014;51.960;8.542;2022-08-01T08:05:04;23.10;;;22.20;;
2019;SDS011;1014;51.960;8.542;2022-08-01T08:07:32;22.87;;;21.87;;
2019;SDS011;1014;51.960;8.542;2022-08-01T08:09:59;22.30;;;21.40;;
2019;SDS011;1014;51.960;8.542;2022-08-01T08:12:27;21.00;;;20.10;;
2019;SDS011;1014;51.960;8.542;2022-08-01T08:14:54;20.97;;;20.17;;
2019;SDS011;1014;51.960;8.542;2022-08-01T08:17:23;21.40;;;20.13;;
2019;SDS011;1014;51.960;8.542;2022-08-01T08:19:52;21.97;;;20.87;;
2019;SDS011;1014;51.960;8.542;2022-08-01T08:22:20;19.67;;;18.87;;
2019;SDS011;1014;51.960;8.542;2022-08-01T08:24:47;19.20;;;18.43;;
2019;SDS011;1014;51.960;8.542;2022-08-01T08:27:15;19.57;;;18.67;;
2019;SDS011;1014;51.960;8.542;2022-08-01T08:29:42;19.67;;;18.87;;
2019;SDS011;1014;51.960;8.542;2022-08-01T08:32:10;20.00;;;19.20;;
2019;SDS011;1014;51.960;8.542;2022-08-01T08:34:37;19.73;;;18.83;;
2019;SDS011;1014;51.960;8.542;2022-08-01T08:37:06;19.90;;;19.00;;
2019;SDS011;1014;51.960;8.542;2022-08-01T08:39:33;19.07;;;18.20;;
2019;SDS011;1014;51.960;8.542;2022-08-01T08:42:01;19.63;;;18.63;;
2019;SDS011;1014;51.960;8.542;2022-08-01T08:44:28;19.57;;;18.70;;
2019;SDS011;1014;51.960;8.542;2022-08-01T08:46:55;19.30;;;18.50;;
2019;SDS011;1014;51.960;8.542;2022-08-01T08:49:25;19.37;;;18.57;;
2019;SDS011;1014;51.960;8.542;2022-08-01T08:51:53;19.43;;;18.57;;
2019;SDS011;1014;51.960;8.542;2022-08-01T08:54:22;19.40;;;18.50;;
2019;SDS011;1014;51.960;8.542;2022-08-01T08:56:51;20.10;;;19.20;;
2019;SDS011;1014;51.960;8.542;2022-08-01T08:59:19;19.53;;;18.57;;
2019;SDS011;1014;51.960;8.542;2022-08-01T09:01:47;19.90;;;18.90;;
2019;SDS011;1014;51.960;8.542;2022-08-01T09:04:14;18.90;;;18.00;;
2019;SDS011;1014;51.960;8.542;2022-08-01T09:06:41;19.97;;;19.07;;
2019;SDS011;1014;51.960;8.542;2022-08-01T09:09:09;18.90;;;18.10;;
2019;SDS011;1014;51.960;8.542;2022-08-01T09:11:38;19.77;;;18.87;;
2019;SDS011;1014;51.960;8.542;2022-08-01T09:14:07;19.00;;;18.20;;
2019;SDS011;1014;51.960;8.542;2022-08-01T09:16:35;20.00;;;19.20;;
2019;SDS011;1014;51.960;8.542;2022-08-01T09:19:07;19.70;;;18.80;;
2019;SDS011;1014;51.960;8.542;2022-08-01T09:21:34;19.77;;;18.87;;
2019;SDS011;1014;51.960;8.542;2022-08-01T09:24:02;18.60;;;17.80;;
2019;SDS011;1014;51.960;8.542;2022-08-01T09:26:31;19.50;;;18.40;;
2019;SDS011;1014;51.960;8.542;2022-08-01T09:29:00;18.50;;;17.60;;
2019;SDS011;1014;51.960;8.542;2022-08-01T09:31:28;18.27;;;17.47;;
2019;SDS011;1014;51.960;8.542;2022-08-01T09:33:56;18.80;;;18.00;;
2019;SDS011;1014;51.960;8.542;2022-08-01T09:36:24;18.67;;;17.77;;
2019;SDS011;1014;51.960;8.542;2022-08-01T09:38:52;18.43;;;17.63;;
2019;SDS011;1014;51.960;8.542;2022-08-01T09:41:28;19.30;;;18.30;;
2019;SDS011;1014;51.960;8.542;2022-08-01T09:43:56;18.67;;;17.77;;
2019;SDS011;1014;51.960;8.542;2022-08-01T09:46:25;18.50;;;17.70;;
2019;SDS011;1014;51.960;8.542;2022-08-01T09:48:57;19.47;;;18.07;;
2019;SDS011;1014;51.960;8.542;2022-08-01T09:51:28;18.47;;;17.33;;
2019;SDS011;1014;51.960;8.542;2022-08-01T09:53:56;18.27;;;17.47;;
2019;SDS011;1014;51.960;8.542;2022-08-01T09:56:24;19.53;;;18.30;;
2019;SDS011;1014;51.960;8.542;2022-08-01T09:58:52;18.47;;;17.67;;
2019;SDS011;1014;51.960;8.542;2022-08-01T10:01:20;18.70;;;17.70;;
2019;SDS011;1014;51.960;8.542;2022-08-01T10:04:04;20.23;;;19.23;;
2019;SDS011;1014;51.960;8.542;2022-08-01T10:06:31;20.33;;;19.33;;
2019;SDS011;1014;51.960;8.542;2022-08-01T10:08:59;19.67;;;18.57;;
2019;SDS011;1014;51.960;8.542;2022-08-01T10:11:26;17.90;;;17.10;;
2019;SDS011;1014;51.960;8.542;2022-08-01T10:13:56;18.23;;;17.43;;
2019;SDS011;1014;51.960;8.542;2022-08-01T10:16:26;17.87;;;16.97;;
2019;SDS011;1014;51.960;8.542;2022-08-01T10:18:53;18.20;;;17.33;;
2019;SDS011;1014;51.960;8.542;2022-08-01T10:21:23;18.17;;;17.37;;
2019;SDS011;1014;51.960;8.542;2022-08-01T10:23:51;18.27;;;17.37;;
2019;SDS011;1014;51.960;8.542;2022-08-01T10:26:20;19.10;;;18.20;;
2019;SDS011;1014;51.960;8.542;2022-08-01T10:28:48;18.57;;;17.67;;
2019;SDS011;1014;51.960;8.542;2022-08-01T10:31:17;19.97;;;18.87;;
2019;SDS011;1014;51.960;8.542;2022-08-01T10:33:45;19.90;;;19.00;;
2019;SDS011;1014;51.960;8.542;2022-08-01T10:36:12;20.10;;;19.20;;
2019;SDS011;1014;51.960;8.542;2022-08-01T10:38:41;19.40;;;18.50;;
2019;SDS011;1014;51.960;8.542;2022-08-01T10:41:09;18.80;;;17.97;;
2019;SDS011;1014;51.960;8.542;2022-08-01T10:43:36;19.70;;;18.80;;
2019;SDS011;1014;51.960;8.542;2022-08-01T10:46:04;18.73;;;17.83;;
2019;SDS011;1014;51.960;8.542;2022-08-01T10:48:33;19.50;;;18.50;;
2019;SDS011;1014;51.960;8.542;2022-08-01T10:51:02;19.87;;;18.87;;
2019;SDS011;1014;51.960;8.542;2022-08-01T10:53:30;19.43;;;18.53;;
2019;SDS011;1014;51.960;8.542;2022-08-01T10:56:02;19.43;;;18.53;;
2019;SDS011;1014;51.960;8.542;2022-08-01T10:58:31;19.53;;;18.30;;
2019;SDS011;1014;51.960;8.542;2022-08-01T11:01:14;19.03;;;18.13;;
2019;SDS011;1014;51.960;8.542;2022-08-01T11:03:43;19.93;;;18.93;;
2019;SDS011;1014;51.960;8.542;2022-08-01T11:06:15;20.30;;;19.10;;
2019;SDS011;1014;51.960;8.542;2022-08-01T11:08:43;20.10;;;19.10;;
2019;SDS011;1014;51.960;8.542;2022-08-01T11:11:20;19.73;;;18.73;;
2019;SDS011;1014;51.960;8.542;2022-08-01T11:14:00;20.00;;;19.00;;
2019;SDS011;1014;51.960;8.542;2022-08-01T11:16:32;18.90;;;17.90;;
2019;SDS011;1014;51.960;8.542;2022-08-01T11:18:59;19.53;;;18.53;;
2019;SDS011;1014;51.960;8.542;2022-08-01T11:24:09;21.63;;;20.10;;
2019;SDS011;1014;51.960;8.542;2022-08-01T11:26:37;19.57;;;18.37;;
2019;SDS011;1014;51.960;8.542;2022-08-01T11:29:15;18.83;;;17.93;;
2019;SDS011;1014;51.960;8.542;2022-08-01T11:31:43;19.00;;;17.90;;
2019;SDS011;1014;51.960;8.542;2022-08-01T11:34:11;19.60;;;18.50;;
2019;SDS011;1014;51.960;8.542;2022-08-01T11:36:38;19.50;;;18.50;;
2019;SDS011;1014;51.960;8.542;2022-08-01T11:39:16;19.83;;;18.80;;
2019;SDS011;1014;51.960;8.542;2022-08-01T11:41:46;19.93;;;18.93;;
2019;SDS011;1014;51.960;8.542;2022-08-01T11:44:17;19.87;;;18.67;;
2019;SDS011;1014;51.960;8.542;2022-08-01T11:46:48;19.23;;;18.23;;
2019;SDS011;1014;51.960;8.542;2022-08-01T11:49:26;19.43;;;18.43;;
2019;SDS011;1014;51.960;8.542;2022-08-01T11:51:58;19.47;;;18.47;;
2019;SDS011;1014;51.960;8.542;2022-08-01T11:54:26;19.47;;;18.43;;
2019;SDS011;1014;51.960;8.542;2022-08-01T11:56:56;19.97;;;18.87;;
2019;SDS011;1014;51.960;8.542;2022-08-01T11:59:24;19.67;;;18.67;;
2019;SDS011;1014;51.960;8.542;2022-08-01T12:01:52;20.30;;;19.20;;
2019;SDS011;1014;51.960;8.542;2022-08-01T12:04:19;19.73;;;18.63;;
2019;SDS011;1014;51.960;8.542;2022-08-01T12:06:47;19.37;;;18.47;;
2019;SDS011;1014;51.960;8.542;2022-08-01T12:09:15;20.90;;;19.50;;
2019;SDS011;1014;51.960;8.542;2022-08-01T12:11:43;20.67;;;19.67;;
2019;SDS011;1014;51.960;8.542;2022-08-01T12:14:16;20.73;;;19.73;;
2019;SDS011;1014;51.960;8.542;2022-08-01T12:16:51;20.70;;;19.70;;
2019;SDS011;1014;51.960;8.542;2022-08-01T12:19:19;21.00;;;20.00;;
2019;SDS011;1014;51.960;8.542;2022-08-01T12:24:29;21.30;;;20.23;;
2019;SDS011;1014;51.960;8.542;2022-08-01T12:26:56;21.70;;;20.50;;
2019;SDS011;1014;51.960;8.542;2022-08-01T12:29:33;21.73;;;20.40;;
2019;SDS011;1014;51.960;8.542;2022-08-01T12:32:00;23.17;;;21.97;;
2019;SDS011;1014;51.960;8.542;2022-08-01T12:34:28;21.97;;;20.97;;
2019;SDS011;1014;51.960;8.542;2022-08-01T12:36:56;23.47;;;22.07;;
2019;SDS011;1014;51.960;8.542;2022-08-01T12:39:28;22.17;;;21.07;;
2019;SDS011;1014;51.960;8.542;2022-08-01T12:41:56;22.93;;;21.53;;
2019;SDS011;1014;51.960;8.542;2022-08-01T12:44:24;22.57;;;21.40;;
2019;SDS011;1014;51.960;8.542;2022-08-01T12:46:54;22.93;;;21.70;;
2019;SDS011;1014;51.960;8.542;2022-08-01T12:49:21;23.17;;;21.90;;
2019;SDS011;1014;51.960;8.542;2022-08-01T12:51:49;24.33;;;22.93;;
2019;SDS011;1014;51.960;8.542;2022-08-01T12:54:16;23.07;;;21.67;;
2019;SDS011;1014;51.960;8.542;2022-08-01T12:56:43;23.10;;;21.70;;
2019;SDS011;1014;51.960;8.542;2022-08-01T12:59:21;24.63;;;23.13;;
2019;SDS011;1014;51.960;8.542;2022-08-01T13:01:50;24.20;;;22.70;;
2019;SDS011;1014;51.960;8.542;2022-08-01T13:04:19;24.57;;;23.27;;
2019;SDS011;1014;51.960;8.542;2022-08-01T13:06:46;26.97;;;25.20;;
2019;SDS011;1014;51.960;8.542;2022-08-01T13:09:14;26.37;;;24.77;;
2019;SDS011;1014;51.960;8.542;2022-08-01T13:11:41;25.80;;;24.33;;
2019;SDS011;1014;51.960;8.542;2022-08-01T13:14:11;25.50;;;24.10;;
2019;SDS011;1014;51.960;8.542;2022-08-01T13:16:53;25.13;;;23.50;;
2019;SDS011;1014;51.960;8.542;2022-08-01T13:19:27;25.10;;;23.77;;
2019;SDS011;1014;51.960;8.542;2022-08-01T13:22:08;23.60;;;22.30;;
2019;SDS011;1014;51.960;8.542;2022-08-01T13:24:36;22.83;;;21.53;;
2019;SDS011;1014;51.960;8.542;2022-08-01T13:27:04;24.67;;;22.87;;
2019;SDS011;1014;51.960;8.542;2022-08-01T13:29:32;24.33;;;22.93;;
2019;SDS011;1014;51.960;8.542;2022-08-01T13:32:00;23.17;;;21.77;;
2019;SDS011;1014;51.960;8.542;2022-08-01T13:34:32;24.00;;;22.60;;
2019;SDS011;1014;51.960;8.542;2022-08-01T13:37:00;23.50;;;22.20;;
2019;SDS011;1014;51.960;8.542;2022-08-01T13:39:28;25.90;;;23.63;;
2019;SDS011;1014;51.960;8.542;2022-08-01T13:42:09;25.10;;;23.30;;
2019;SDS011;1014;51.960;8.542;2022-08-01T13:44:37;24.57;;;23.07;;
2019;SDS011;1014;51.960;8.542;2022-08-01T13:47:05;22.63;;;21.27;;
2019;SDS011;1014;51.960;8.542;2022-08-01T13:49:35;23.60;;;22.20;;
2019;SDS011;1014;51.960;8.542;2022-08-01T13:52:02;22.93;;;21.70;;
2019;SDS011;1014;51.960;8.542;2022-08-01T13:54:31;23.30;;;21.80;;
2019;SDS011;1014;51.960;8.542;2022-08-01T13:56:58;23.63;;;22.23;;
2019;SDS011;1014;51.960;8.542;2022-08-01T13:59:26;24.30;;;22.50;;
2019;SDS011;1014;51.960;8.542;2022-08-01T14:01:53;23.03;;;21.63;;
2019;SDS011;1014;51.960;8.542;2022-08-01T14:04:21;24.07;;;22.50;;
2019;SDS011;1014;51.960;8.542;2022-08-01T14:06:49;21.60;;;20.40;;
2019;SDS011;1014;51.960;8.542;2022-08-01T14:09:17;23.40;;;22.00;;
2019;SDS011;1014;51.960;8.542;2022-08-01T14:11:47;21.90;;;20.70;;
2019;SDS011;1014;51.960;8.542;2022-08-01T14:14:15;22.50;;;21.20;;
2019;SDS011;1014;51.960;8.542;2022-08-01T14:16:42;23.57;;;21.97;;
2019;SDS011;1014;51.960;8.542;2022-08-01T14:19:11;22.80;;;21.10;;
2019;SDS011;1014;51.960;8.542;2022-08-01T14:21:38;21.40;;;20.13;;
2019;SDS011;1014;51.960;8.542;2022-08-01T14:24:07;21.23;;;19.93;;
2019;SDS011;1014;51.960;8.542;2022-08-01T14:26:35;21.53;;;20.33;;
2019;SDS011;1014;51.960;8.542;2022-08-01T14:29:02;21.50;;;20.20;;
2019;SDS011;1014;51.960;8.542;2022-08-01T14:31:29;21.63;;;20.43;;
2019;SDS011;1014;51.960;8.542;2022-08-01T14:33:57;23.83;;;22.43;;
2019;SDS011;1014;51.960;8.542;2022-08-01T14:36:24;22.83;;;21.60;;
2019;SDS011;1014;51.960;8.542;2022-08-01T14:38:52;24.27;;;22.77;;
2019;SDS011;1014;51.960;8.542;2022-08-01T14:41:20;21.70;;;20.60;;
2019;SDS011;1014;51.960;8.542;2022-08-01T14:43:48;22.47;;;20.97;;
2019;SDS011;1014;51.960;8.542;2022-08-01T14:46:15;22.23;;;20.93;;
2019;SDS011;1014;51.960;8.542;2022-08-01T14:48:42;21.20;;;19.70;;
2019;SDS011;1014;51.960;8.542;2022-08-01T14:51:10;21.10;;;19.90;;
2019;SDS011;1014;51.960;8.542;2022-08-01T14:53:37;21.50;;;20.30;;
2019;SDS011;1014;51.960;8.542;2022-08-01T14:56:05;22.57;;;21.17;;
2019;SDS011;1014;51.960;8.542;2022-08-01T14:58:35;23.03;;;21.43;;
2019;SDS011;1014;51.960;8.542;2022-08-01T15:01:02;23.10;;;21.70;;
2019;SDS011;1014;51.960;8.542;2022-08-01T15:03:30;22.03;;;20.70;;